sensor_id;sensor_type;location;lat;lon;timestamp;pressure;altitude;pressure_sealevel;temperature;humidity
8253;BME280;61313;48.396;10.008;2023-06-14T00:01:43;95720.56;;;18.54;34.74
8253;BME280;61313;48.396;10.008;2023-06-14T00:04:11;95723.75;;;18.48;34.66
8253;BME280;61313;48.396;10.008;2023-06-14T00:06:36;95721.34;;;18.45;35.02
8253;BME280;61313;48.396;10.008;2023-06-14T00:09:01;95715.13;;;18.55;34.79
8253;BME280;61313;48.396;10.008;2023-06-14T00:11:27;95720.31;;;18.57;34.37
8253;BME280;61313;48.396;10.008;2023-06-14T00:13:52;95719.91;;;18.61;34.02
8253;BME280;61313;48.396;10.008;2023-06-14T00:16:18;95724.31;;;18.51;34.44
8253;BME280;61313;48.396;10.008;2023-06-14T00:18:44;95726.22;;;18.39;34.39
8253;BME280;61313;48.396;10.008;2023-06-14T00:21:11;95728.56;;;18.33;34.96
8253;BME280;61313;48.396;10.008;2023-06-14T00:23:37;95723.72;;;18.38;34.72
8253;BME280;61313;48.396;10.008;2023-06-14T00:26:03;95724.66;;;18.37;34.48
8253;BME280;61313;48.396;10.008;2023-06-14T00:28:28;95724.09;;;18.33;34.43
8253;BME280;61313;48.396;10.008;2023-06-14T00:30:53;95730.56;;;18.40;34.34
8253;BME280;61313;48.396;10.008;2023-06-14T00:33:19;95724.06;;;18.54;34.31
8253;BME280;61313;48.396;10.008;2023-06-14T00:35:44;95736.13;;;18.37;34.52
8253;BME280;61313;48.396;10.008;2023-06-14T00:38:09;95719.56;;;18.45;34.32
8253;BME280;61313;48.396;10.008;2023-06-14T00:40:35;95737.00;;;18.38;34.33
8253;BME280;61313;48.396;10.008;2023-06-14T00:43:00;95720.72;;;18.31;34.26
8253;BME280;61313;48.396;10.008;2023-06-14T00:45:26;95722.31;;;18.13;34.51
8253;BME280;61313;48.396;10.008;2023-06-14T00:47:51;95724.06;;;18.24;34.84
8253;BME280;61313;48.396;10.008;2023-06-14T00:50:20;95723.97;;;18.14;34.68
8253;BME280;61313;48.396;10.008;2023-06-14T00:52:46;95723.00;;;18.15;34.58
8253;BME280;61313;48.396;10.008;2023-06-14T00:55:12;95722.88;;;18.16;34.57
8253;BME280;61313;48.396;10.008;2023-06-14T00:57:38;95722.09;;;18.05;34.71
8253;BME280;61313;48.396;10.008;2023-06-14T01:00:05;95725.53;;;18.16;34.94
8253;BME280;61313;48.396;10.008;2023-06-14T01:02:37;95726.72;;;18.03;34.56
8253;BME280;61313;48.396;10.008;2023-06-14T01:05:03;95730.78;;;18.07;34.60
8253;BME280;61313;48.396;10.008;2023-06-14T01:10:19;95723.47;;;17.99;34.97
8253;BME280;61313;48.396;10.008;2023-06-14T01:15:39;95728.50;;;18.23;34.53
8253;BME280;61313;48.396;10.008;2023-06-14T01:18:06;95726.63;;;18.14;34.34
8253;BME280;61313;48.396;10.008;2023-06-14T01:20:33;95721.84;;;18.08;34.41
8253;BME280;61313;48.396;10.008;2023-06-14T01:23:01;95721.31;;;18.14;34.91
8253;BME280;61313;48.396;10.008;2023-06-14T01:25:27;95723.34;;;18.01;34.16
8253;BME280;61313;48.396;10.008;2023-06-14T01:27:57;95730.31;;;18.02;34.64
8253;BME280;61313;48.396;10.008;2023-06-14T01:30:24;95723.91;;;17.83;35.31
8253;BME280;61313;48.396;10.008;2023-06-14T01:32:54;95716.53;;;17.87;35.35
8253;BME280;61313;48.396;10.008;2023-06-14T01:35:20;95723.94;;;17.72;35.54
8253;BME280;61313;48.396;10.008;2023-06-14T01:37:47;95720.16;;;17.86;35.15
8253;BME280;61313;48.396;10.008;2023-06-14T01:40:15;95719.59;;;17.71;35.53
8253;BME280;61313;48.396;10.008;2023-06-14T01:42:41;95725.50;;;17.74;35.95
8253;BME280;61313;48.396;10.008;2023-06-14T01:45:09;95714.38;;;17.81;35.65
8253;BME280;61313;48.396;10.008;2023-06-14T01:47:35;95714.53;;;17.68;35.71
8253;BME280;61313;48.396;10.008;2023-06-14T01:50:02;95718.41;;;17.64;36.09
8253;BME280;61313;48.396;10.008;2023-06-14T01:52:27;95718.81;;;17.80;35.65
8253;BME280;61313;48.396;10.008;2023-06-14T01:54:53;95711.97;;;17.77;35.47
8253;BME280;61313;48.396;10.008;2023-06-14T01:57:18;95716.59;;;17.64;35.97
8253;BME280;61313;48.396;10.008;2023-06-14T01:59:44;95711.81;;;17.58;36.49
8253;BME280;61313;48.396;10.008;2023-06-14T02:02:13;95716.19;;;17.48;36.91
8253;BME280;61313;48.396;10.008;2023-06-14T02:04:39;95713.28;;;17.51;36.14
8253;BME280;61313;48.396;10.008;2023-06-14T02:07:04;95717.19;;;17.35;36.84
8253;BME280;61313;48.396;10.008;2023-06-14T02:09:30;95719.63;;;17.39;36.23
8253;BME280;61313;48.396;10.008;2023-06-14T02:11:55;95718.97;;;17.46;36.50
8253;BME280;61313;48.396;10.008;2023-06-14T02:14:20;95713.53;;;17.48;36.07
8253;BME280;61313;48.396;10.008;2023-06-14T02:16:46;95717.13;;;17.58;36.04
8253;BME280;61313;48.396;10.008;2023-06-14T02:19:17;95716.31;;;17.46;36.35
8253;BME280;61313;48.396;10.008;2023-06-14T02:21:43;95713.69;;;17.46;36.23
8253;BME280;61313;48.396;10.008;2023-06-14T02:24:08;95715.59;;;17.44;36.20
8253;BME280;61313;48.396;10.008;2023-06-14T02:26:34;95711.25;;;17.43;35.89
8253;BME280;61313;48.396;10.008;2023-06-14T02:28:59;95711.78;;;17.37;36.01
8253;BME280;61313;48.396;10.008;2023-06-14T02:31:25;95717.91;;;17.38;36.59
8253;BME280;61313;48.396;10.008;2023-06-14T02:33:51;95717.34;;;17.34;35.94
8253;BME280;61313;48.396;10.008;2023-06-14T02:36:16;95714.13;;;17.51;35.81
8253;BME280;61313;48.396;10.008;2023-06-14T02:38:41;95723.09;;;17.39;35.83
8253;BME280;61313;48.396;10.008;2023-06-14T02:41:07;95719.13;;;17.33;35.70
8253;BME280;61313;48.396;10.008;2023-06-14T02:43:32;95726.97;;;17.35;35.99
8253;BME280;61313;48.396;10.008;2023-06-14T02:45:58;95716.31;;;17.46;35.57
8253;BME280;61313;48.396;10.008;2023-06-14T02:48:23;95711.88;;;17.35;35.94
8253;BME280;61313;48.396;10.008;2023-06-14T02:50:48;95721.41;;;17.38;35.69
8253;BME280;61313;48.396;10.008;2023-06-14T02:53:14;95720.09;;;17.32;35.75
8253;BME280;61313;48.396;10.008;2023-06-14T02:55:39;95716.84;;;17.29;36.08
8253;BME280;61313;48.396;10.008;2023-06-14T02:58:05;95720.22;;;17.31;35.91
8253;BME280;61313;48.396;10.008;2023-06-14T03:00:31;95721.66;;;17.35;35.95
8253;BME280;61313;48.396;10.008;2023-06-14T03:02:56;95716.81;;;17.40;36.11
8253;BME280;61313;48.396;10.008;2023-06-14T03:05:22;95719.22;;;17.43;35.50
8253;BME280;61313;48.396;10.008;2023-06-14T03:07:48;95720.22;;;17.31;36.04
8253;BME280;61313;48.396;10.008;2023-06-14T03:10:15;95718.56;;;17.30;35.73
8253;BME280;61313;48.396;10.008;2023-06-14T03:12:41;95717.06;;;17.48;35.45
8253;BME280;61313;48.396;10.008;2023-06-14T03:15:07;95721.38;;;17.49;35.90
8253;BME280;61313;48.396;10.008;2023-06-14T03:17:34;95721.19;;;17.30;36.00
8253;BME280;61313;48.396;10.008;2023-06-14T03:20:00;95725.31;;;17.34;36.12
8253;BME280;61313;48.396;10.008;2023-06-14T03:22:26;95725.97;;;17.47;36.05
8253;BME280;61313;48.396;10.008;2023-06-14T03:24:52;95724.00;;;17.17;35.79
8253;BME280;61313;48.396;10.008;2023-06-14T03:27:17;95732.19;;;17.25;35.90
8253;BME280;61313;48.396;10.008;2023-06-14T03:29:44;95730.84;;;17.31;35.62
8253;BME280;61313;48.396;10.008;2023-06-14T03:32:09;95730.59;;;17.34;36.18
8253;BME280;61313;48.396;10.008;2023-06-14T03:34:35;95735.75;;;17.35;35.83
8253;BME280;61313;48.396;10.008;2023-06-14T03:37:00;95732.59;;;17.53;35.50
8253;BME280;61313;48.396;10.008;2023-06-14T03:39:26;95724.25;;;17.58;35.35
8253;BME280;61313;48.396;10.008;2023-06-14T03:41:51;95738.44;;;17.68;35.49
8253;BME280;61313;48.396;10.008;2023-06-14T03:44:18;95733.31;;;17.76;34.98
8253;BME280;61313;48.396;10.008;2023-06-14T03:46:44;95729.41;;;17.59;35.57
8253;BME280;61313;48.396;10.008;2023-06-14T03:49:10;95732.53;;;17.64;35.50
8253;BME280;61313;48.396;10.008;2023-06-14T03:51:36;95728.53;;;17.81;35.25
8253;BME280;61313;48.396;10.008;2023-06-14T03:54:02;95740.81;;;17.82;35.27
8253;BME280;61313;48.396;10.008;2023-06-14T03:56:27;95740.09;;;18.01;34.88
8253;BME280;61313;48.396;10.008;2023-06-14T03:58:52;95740.69;;;18.05;35.17
8253;BME280;61313;48.396;10.008;2023-06-14T04:01:18;95745.47;;;17.90;35.02
8253;BME280;61313;48.396;10.008;2023-06-14T04:03:43;95753.00;;;18.06;34.98
8253;BME280;61313;48.396;10.008;2023-06-14T04:06:08;95752.06;;;18.16;35.06
8253;BME280;61313;48.396;10.008;2023-06-14T04:08:34;95748.78;;;18.24;34.58
8253;BME280;61313;48.396;10.008;2023-06-14T04:11:00;95748.78;;;18.45;34.25
8253;BME280;61313;48.396;10.008;2023-06-14T04:13:26;95755.88;;;18.75;33.70
8253;BME280;61313;48.396;10.008;2023-06-14T04:15:51;95756.63;;;18.77;33.63
8253;BME280;61313;48.396;10.008;2023-06-14T04:18:17;95755.13;;;18.85;33.54
8253;BME280;61313;48.396;10.008;2023-06-14T04:20:44;95757.25;;;18.91;33.77
8253;BME280;61313;48.396;10.008;2023-06-14T04:23:14;95768.63;;;19.02;33.72
8253;BME280;61313;48.396;10.008;2023-06-14T04:25:40;95772.31;;;19.11;33.41
8253;BME280;61313;48.396;10.008;2023-06-14T04:28:06;95764.69;;;19.37;33.10
8253;BME280;61313;48.396;10.008;2023-06-14T04:30:34;95767.75;;;19.42;33.11
8253;BME280;61313;48.396;10.008;2023-06-14T04:33:00;95767.34;;;19.47;33.66
8253;BME280;61313;48.396;10.008;2023-06-14T04:35:26;95765.13;;;18.71;34.25
8253;BME280;61313;48.396;10.008;2023-06-14T04:37:52;95770.69;;;18.68;34.47
8253;BME280;61313;48.396;10.008;2023-06-14T04:40:18;95773.91;;;18.62;34.48
8253;BME280;61313;48.396;10.008;2023-06-14T04:42:44;95780.94;;;18.73;34.64
8253;BME280;61313;48.396;10.008;2023-06-14T04:45:11;95782.88;;;18.71;34.60
8253;BME280;61313;48.396;10.008;2023-06-14T04:47:36;95781.97;;;18.81;34.31
8253;BME280;61313;48.396;10.008;2023-06-14T04:50:03;95784.81;;;18.90;34.35
8253;BME280;61313;48.396;10.008;2023-06-14T04:52:28;95776.72;;;18.91;33.90
8253;BME280;61313;48.396;10.008;2023-06-14T04:54:54;95791.78;;;19.21;34.05
8253;BME280;61313;48.396;10.008;2023-06-14T04:57:21;95798.06;;;19.20;33.88
8253;BME280;61313;48.396;10.008;2023-06-14T04:59:47;95801.25;;;19.45;33.41
8253;BME280;61313;48.396;10.008;2023-06-14T05:02:13;95806.69;;;19.43;33.63
8253;BME280;61313;48.396;10.008;2023-06-14T05:04:39;95803.94;;;19.14;33.55
8253;BME280;61313;48.396;10.008;2023-06-14T05:07:09;95803.50;;;19.50;33.27
8253;BME280;61313;48.396;10.008;2023-06-14T05:09:35;95801.03;;;18.87;34.57
8253;BME280;61313;48.396;10.008;2023-06-14T05:12:01;95804.00;;;19.34;33.92
8253;BME280;61313;48.396;10.008;2023-06-14T05:14:26;95803.16;;;19.33;33.79
8253;BME280;61313;48.396;10.008;2023-06-14T05:16:52;95807.06;;;19.29;33.54
8253;BME280;61313;48.396;10.008;2023-06-14T05:19:18;95803.16;;;19.23;33.59
8253;BME280;61313;48.396;10.008;2023-06-14T05:21:44;95809.50;;;19.42;33.57
8253;BME280;61313;48.396;10.008;2023-06-14T05:24:10;95800.84;;;19.59;33.17
8253;BME280;61313;48.396;10.008;2023-06-14T05:26:36;95806.69;;;19.03;33.58
8253;BME280;61313;48.396;10.008;2023-06-14T05:29:02;95804.00;;;18.72;34.36
8253;BME280;61313;48.396;10.008;2023-06-14T05:31:28;95808.25;;;19.06;33.86
8253;BME280;61313;48.396;10.008;2023-06-14T05:33:54;95802.56;;;19.20;33.87
8253;BME280;61313;48.396;10.008;2023-06-14T05:36:20;95815.22;;;19.28;34.02
8253;BME280;61313;48.396;10.008;2023-06-14T05:38:48;95816.16;;;19.27;34.01
8253;BME280;61313;48.396;10.008;2023-06-14T05:41:15;95817.72;;;19.29;33.95
8253;BME280;61313;48.396;10.008;2023-06-14T05:43:41;95815.00;;;19.60;33.26
8253;BME280;61313;48.396;10.008;2023-06-14T05:46:06;95810.91;;;19.56;33.04
8253;BME280;61313;48.396;10.008;2023-06-14T05:48:32;95818.88;;;19.46;33.14
8253;BME280;61313;48.396;10.008;2023-06-14T05:50:58;95816.78;;;19.40;32.36
8253;BME280;61313;48.396;10.008;2023-06-14T05:53:23;95816.00;;;19.18;33.21
8253;BME280;61313;48.396;10.008;2023-06-14T05:55:50;95822.94;;;19.00;33.64
8253;BME280;61313;48.396;10.008;2023-06-14T05:58:17;95815.22;;;18.76;34.34
8253;BME280;61313;48.396;10.008;2023-06-14T06:00:42;95817.19;;;19.35;33.46
8253;BME280;61313;48.396;10.008;2023-06-14T06:03:14;95821.09;;;19.41;33.51
8253;BME280;61313;48.396;10.008;2023-06-14T06:05:39;95830.19;;;18.98;34.33
8253;BME280;61313;48.396;10.008;2023-06-14T06:08:05;95824.19;;;19.46;33.93
8253;BME280;61313;48.396;10.008;2023-06-14T06:10:31;95834.56;;;19.39;34.27
8253;BME280;61313;48.396;10.008;2023-06-14T06:12:56;95828.16;;;19.11;34.35
8253;BME280;61313;48.396;10.008;2023-06-14T06:15:21;95837.25;;;19.49;34.20
8253;BME280;61313;48.396;10.008;2023-06-14T06:17:47;95835.44;;;19.59;33.78
8253;BME280;61313;48.396;10.008;2023-06-14T06:20:12;95824.59;;;19.82;33.19
8253;BME280;61313;48.396;10.008;2023-06-14T06:22:38;95832.72;;;19.71;33.91
8253;BME280;61313;48.396;10.008;2023-06-14T06:25:04;95833.50;;;19.61;33.98
8253;BME280;61313;48.396;10.008;2023-06-14T06:27:31;95833.00;;;19.77;33.08
8253;BME280;61313;48.396;10.008;2023-06-14T06:29:58;95833.84;;;19.78;33.70
8253;BME280;61313;48.396;10.008;2023-06-14T06:32:23;95831.69;;;19.21;34.48
8253;BME280;61313;48.396;10.008;2023-06-14T06:34:49;95832.44;;;19.74;34.24
8253;BME280;61313;48.396;10.008;2023-06-14T06:37:15;95831.06;;;19.89;34.03
8253;BME280;61313;48.396;10.008;2023-06-14T06:39:40;95835.81;;;20.24;33.52
8253;BME280;61313;48.396;10.008;2023-06-14T06:42:06;95841.97;;;19.76;33.67
8253;BME280;61313;48.396;10.008;2023-06-14T06:44:32;95843.66;;;19.87;34.21
8253;BME280;61313;48.396;10.008;2023-06-14T06:46:58;95836.25;;;20.29;33.62
8253;BME280;61313;48.396;10.008;2023-06-14T06:49:23;95838.16;;;20.76;32.83
8253;BME280;61313;48.396;10.008;2023-06-14T06:52:03;95848.84;;;20.76;32.70
8253;BME280;61313;48.396;10.008;2023-06-14T06:54:29;95848.72;;;20.19;33.74
8253;BME280;61313;48.396;10.008;2023-06-14T06:56:55;95845.38;;;20.37;33.80
8253;BME280;61313;48.396;10.008;2023-06-14T06:59:21;95853.84;;;20.99;32.81
8253;BME280;61313;48.396;10.008;2023-06-14T07:01:46;95852.91;;;20.70;32.97
8253;BME280;61313;48.396;10.008;2023-06-14T07:04:12;95849.72;;;20.08;34.46
8253;BME280;61313;48.396;10.008;2023-06-14T07:06:38;95855.72;;;20.40;34.28
8253;BME280;61313;48.396;10.008;2023-06-14T07:09:03;95858.78;;;19.86;34.60
8253;BME280;61313;48.396;10.008;2023-06-14T07:11:31;95857.56;;;20.39;33.89
8253;BME280;61313;48.396;10.008;2023-06-14T07:13:57;95859.53;;;20.57;34.18
8253;BME280;61313;48.396;10.008;2023-06-14T07:16:22;95861.47;;;20.45;34.01
8253;BME280;61313;48.396;10.008;2023-06-14T07:18:48;95879.28;;;20.73;33.87
8253;BME280;61313;48.396;10.008;2023-06-14T07:21:14;95870.31;;;20.75;33.98
8253;BME280;61313;48.396;10.008;2023-06-14T07:23:39;95871.28;;;20.54;34.25
8253;BME280;61313;48.396;10.008;2023-06-14T07:26:04;95879.31;;;20.15;35.22
8253;BME280;61313;48.396;10.008;2023-06-14T07:28:30;95872.97;;;20.36;34.73
8253;BME280;61313;48.396;10.008;2023-06-14T07:30:55;95879.00;;;19.99;35.37
8253;BME280;61313;48.396;10.008;2023-06-14T07:33:21;95877.50;;;19.65;36.20
8253;BME280;61313;48.396;10.008;2023-06-14T07:35:46;95887.53;;;19.93;36.08
8253;BME280;61313;48.396;10.008;2023-06-14T07:38:13;95887.09;;;19.78;36.14
8253;BME280;61313;48.396;10.008;2023-06-14T07:40:38;95888.13;;;20.25;35.27
8253;BME280;61313;48.396;10.008;2023-06-14T07:43:03;95887.69;;;20.01;35.69
8253;BME280;61313;48.396;10.008;2023-06-14T07:45:29;95882.88;;;21.02;33.94
8253;BME280;61313;48.396;10.008;2023-06-14T07:47:54;95882.16;;;21.09;33.87
8253;BME280;61313;48.396;10.008;2023-06-14T07:50:20;95874.06;;;21.48;32.24
8253;BME280;61313;48.396;10.008;2023-06-14T07:52:45;95881.06;;;21.49;32.19
8253;BME280;61313;48.396;10.008;2023-06-14T07:55:12;95879.91;;;21.62;32.51
8253;BME280;61313;48.396;10.008;2023-06-14T07:57:37;95883.66;;;21.69;32.45
8253;BME280;61313;48.396;10.008;2023-06-14T08:00:03;95879.41;;;21.76;32.26
8253;BME280;61313;48.396;10.008;2023-06-14T08:02:31;95891.66;;;21.41;32.70
8253;BME280;61313;48.396;10.008;2023-06-14T08:04:57;95890.78;;;21.50;32.68
8253;BME280;61313;48.396;10.008;2023-06-14T08:07:23;95888.22;;;21.49;33.16
8253;BME280;61313;48.396;10.008;2023-06-14T08:09:49;95883.91;;;22.39;32.05
8253;BME280;61313;48.396;10.008;2023-06-14T08:12:14;95875.13;;;22.91;31.76
8253;BME280;61313;48.396;10.008;2023-06-14T08:14:42;95881.00;;;23.12;31.60
8253;BME280;61313;48.396;10.008;2023-06-14T08:17:07;95875.94;;;23.01;31.28
8253;BME280;61313;48.396;10.008;2023-06-14T08:19:32;95872.97;;;23.12;30.56
8253;BME280;61313;48.396;10.008;2023-06-14T08:21:58;95875.34;;;22.71;31.69
8253;BME280;61313;48.396;10.008;2023-06-14T08:24:23;95874.19;;;22.74;31.40
8253;BME280;61313;48.396;10.008;2023-06-14T08:26:50;95882.22;;;22.74;30.90
8253;BME280;61313;48.396;10.008;2023-06-14T08:29:15;95889.38;;;22.02;31.71
8253;BME280;61313;48.396;10.008;2023-06-14T08:31:40;95891.78;;;22.40;31.40
8253;BME280;61313;48.396;10.008;2023-06-14T08:34:06;95883.41;;;22.35;32.02
8253;BME280;61313;48.396;10.008;2023-06-14T08:36:32;95895.22;;;22.33;32.71
8253;BME280;61313;48.396;10.008;2023-06-14T08:38:57;95886.97;;;22.26;32.04
8253;BME280;61313;48.396;10.008;2023-06-14T08:41:23;95888.09;;;22.41;30.81
8253;BME280;61313;48.396;10.008;2023-06-14T08:43:50;95888.81;;;22.61;31.24
8253;BME280;61313;48.396;10.008;2023-06-14T08:46:17;95894.25;;;22.96;30.00
8253;BME280;61313;48.396;10.008;2023-06-14T08:48:46;95889.31;;;22.65;30.20
8253;BME280;61313;48.396;10.008;2023-06-14T08:51:13;95886.72;;;23.43;29.06
8253;BME280;61313;48.396;10.008;2023-06-14T08:53:42;95886.47;;;23.63;29.43
8253;BME280;61313;48.396;10.008;2023-06-14T08:56:08;95885.16;;;23.67;29.28
8253;BME280;61313;48.396;10.008;2023-06-14T08:58:43;95879.47;;;24.13;28.56
8253;BME280;61313;48.396;10.008;2023-06-14T09:01:11;95882.94;;;23.97;27.94
8253;BME280;61313;48.396;10.008;2023-06-14T09:03:41;95879.63;;;24.11;28.47
8253;BME280;61313;48.396;10.008;2023-06-14T09:06:08;95879.22;;;24.57;28.13
8253;BME280;61313;48.396;10.008;2023-06-14T09:08:46;95885.84;;;23.09;28.26
8253;BME280;61313;48.396;10.008;2023-06-14T09:11:13;95886.75;;;23.52;29.02
8253;BME280;61313;48.396;10.008;2023-06-14T09:13:39;95880.88;;;23.82;28.22
8253;BME280;61313;48.396;10.008;2023-06-14T09:16:06;95881.03;;;23.81;27.73
8253;BME280;61313;48.396;10.008;2023-06-14T09:18:39;95883.81;;;23.71;28.41
8253;BME280;61313;48.396;10.008;2023-06-14T09:21:06;95883.38;;;23.76;28.37
8253;BME280;61313;48.396;10.008;2023-06-14T09:23:40;95884.59;;;24.48;27.64
8253;BME280;61313;48.396;10.008;2023-06-14T09:26:16;95886.78;;;24.53;26.80
8253;BME280;61313;48.396;10.008;2023-06-14T09:28:49;95894.19;;;24.08;27.76
8253;BME280;61313;48.396;10.008;2023-06-14T09:31:16;95888.81;;;24.00;28.81
8253;BME280;61313;48.396;10.008;2023-06-14T09:33:43;95894.75;;;24.45;27.35
8253;BME280;61313;48.396;10.008;2023-06-14T09:36:22;95887.66;;;24.03;27.95
8253;BME280;61313;48.396;10.008;2023-06-14T09:39:03;95892.19;;;24.11;27.11
8253;BME280;61313;48.396;10.008;2023-06-14T09:41:40;95897.53;;;23.34;26.67
8253;BME280;61313;48.396;10.008;2023-06-14T09:44:07;95889.34;;;23.70;26.62
8253;BME280;61313;48.396;10.008;2023-06-14T09:46:34;95895.25;;;23.47;26.26
8253;BME280;61313;48.396;10.008;2023-06-14T09:49:01;95897.34;;;23.27;26.29
8253;BME280;61313;48.396;10.008;2023-06-14T09:51:28;95893.22;;;23.15;26.29
8253;BME280;61313;48.396;10.008;2023-06-14T09:53:59;95890.81;;;23.64;25.97
8253;BME280;61313;48.396;10.008;2023-06-14T09:56:30;95887.19;;;24.16;25.24
8253;BME280;61313;48.396;10.008;2023-06-14T09:58:57;95893.25;;;23.75;25.57
8253;BME280;61313;48.396;10.008;2023-06-14T10:01:30;95902.75;;;23.09;25.51
8253;BME280;61313;48.396;10.008;2023-06-14T10:04:01;95897.50;;;23.25;26.29
8253;BME280;61313;48.396;10.008;2023-06-14T10:06:28;95889.34;;;23.70;25.65
8253;BME280;61313;48.396;10.008;2023-06-14T10:08:56;95888.19;;;23.72;25.13
8253;BME280;61313;48.396;10.008;2023-06-14T10:11:23;95881.66;;;24.17;25.19
8253;BME280;61313;48.396;10.008;2023-06-14T10:13:49;95886.50;;;23.71;25.31
8253;BME280;61313;48.396;10.008;2023-06-14T10:17:04;95891.84;;;23.71;26.08
8253;BME280;61313;48.396;10.008;2023-06-14T10:19:21;95885.56;;;23.80;26.08
8253;BME280;61313;48.396;10.008;2023-06-14T10:22:08;95884.03;;;24.45;25.57
8253;BME280;61313;48.396;10.008;2023-06-14T10:24:40;95885.28;;;24.00;25.29
8253;BME280;61313;48.396;10.008;2023-06-14T10:27:07;95881.47;;;24.11;25.23
8253;BME280;61313;48.396;10.008;2023-06-14T10:30:07;95876.25;;;23.66;25.43
8253;BME280;61313;48.396;10.008;2023-06-14T10:32:33;95880.22;;;23.54;25.56
8253;BME280;61313;48.396;10.008;2023-06-14T10:34:59;95882.56;;;22.97;26.79
8253;BME280;61313;48.396;10.008;2023-06-14T10:37:25;95873.75;;;23.04;27.01
8253;BME280;61313;48.396;10.008;2023-06-14T10:39:51;95887.22;;;23.47;26.68
8253;BME280;61313;48.396;10.008;2023-06-14T10:42:17;95878.94;;;23.66;26.41
8253;BME280;61313;48.396;10.008;2023-06-14T10:44:43;95887.91;;;23.49;25.71
8253;BME280;61313;48.396;10.008;2023-06-14T10:47:48;95875.13;;;23.09;25.63
8253;BME280;61313;48.396;10.008;2023-06-14T10:50:14;95872.13;;;23.12;25.35
8253;BME280;61313;48.396;10.008;2023-06-14T10:52:42;95875.00;;;23.44;25.46
8253;BME280;61313;48.396;10.008;2023-06-14T10:57:49;95871.88;;;24.00;25.79
8253;BME280;61313;48.396;10.008;2023-06-14T11:00:22;95871.44;;;23.70;25.98
8253;BME280;61313;48.396;10.008;2023-06-14T11:05:27;95885.00;;;23.34;25.64
8253;BME280;61313;48.396;10.008;2023-06-14T11:11:00;95871.00;;;23.83;24.71
8253;BME280;61313;48.396;10.008;2023-06-14T11:13:30;95877.97;;;24.10;24.44
8253;BME280;61313;48.396;10.008;2023-06-14T11:15:56;95873.09;;;24.05;24.72
8253;BME280;61313;48.396;10.008;2023-06-14T11:18:23;95878.63;;;23.70;25.37
8253;BME280;61313;48.396;10.008;2023-06-14T11:20:52;95879.97;;;23.65;25.84
8253;BME280;61313;48.396;10.008;2023-06-14T11:23:18;95871.78;;;23.67;25.54
8253;BME280;61313;48.396;10.008;2023-06-14T11:25:48;95872.50;;;23.85;25.22
8253;BME280;61313;48.396;10.008;2023-06-14T11:28:14;95874.94;;;24.13;25.38
8253;BME280;61313;48.396;10.008;2023-06-14T11:30:39;95872.44;;;24.28;24.80
8253;BME280;61313;48.396;10.008;2023-06-14T11:33:09;95865.94;;;24.39;24.61
8253;BME280;61313;48.396;10.008;2023-06-14T11:35:35;95871.63;;;24.19;25.22
8253;BME280;61313;48.396;10.008;2023-06-14T11:38:01;95881.72;;;23.83;25.38
8253;BME280;61313;48.396;10.008;2023-06-14T11:40:27;95874.94;;;23.71;26.08
8253;BME280;61313;48.396;10.008;2023-06-14T11:43:00;95868.84;;;23.86;25.63
8253;BME280;61313;48.396;10.008;2023-06-14T11:45:26;95868.22;;;24.09;25.08
8253;BME280;61313;48.396;10.008;2023-06-14T11:47:53;95871.91;;;24.08;25.09
8253;BME280;61313;48.396;10.008;2023-06-14T11:50:19;95868.09;;;24.35;25.10
8253;BME280;61313;48.396;10.008;2023-06-14T11:52:44;95855.53;;;24.44;23.76
8253;BME280;61313;48.396;10.008;2023-06-14T11:55:17;95861.09;;;24.59;22.91
8253;BME280;61313;48.396;10.008;2023-06-14T11:57:42;95856.31;;;24.12;23.81
8253;BME280;61313;48.396;10.008;2023-06-14T12:00:08;95861.88;;;23.67;24.12
8253;BME280;61313;48.396;10.008;2023-06-14T12:02:37;95861.00;;;23.59;24.20
8253;BME280;61313;48.396;10.008;2023-06-14T12:05:06;95865.84;;;23.55;23.60
8253;BME280;61313;48.396;10.008;2023-06-14T12:07:36;95863.69;;;24.01;24.41
8253;BME280;61313;48.396;10.008;2023-06-14T12:12:28;95858.31;;;23.93;23.67
8253;BME280;61313;48.396;10.008;2023-06-14T12:14:55;95860.41;;;24.24;22.52
8253;BME280;61313;48.396;10.008;2023-06-14T12:17:23;95855.38;;;24.45;22.99
8253;BME280;61313;48.396;10.008;2023-06-14T12:19:49;95860.53;;;24.14;22.40
8253;BME280;61313;48.396;10.008;2023-06-14T12:22:16;95858.69;;;24.23;22.55
8253;BME280;61313;48.396;10.008;2023-06-14T12:24:45;95854.69;;;24.27;22.16
8253;BME280;61313;48.396;10.008;2023-06-14T12:27:11;95856.81;;;24.07;22.92
8253;BME280;61313;48.396;10.008;2023-06-14T12:29:41;95856.63;;;23.92;23.13
8253;BME280;61313;48.396;10.008;2023-06-14T12:32:10;95849.06;;;24.55;22.92
8253;BME280;61313;48.396;10.008;2023-06-14T12:34:36;95855.91;;;24.82;22.38
8253;BME280;61313;48.396;10.008;2023-06-14T12:37:01;95851.53;;;25.05;21.74
8253;BME280;61313;48.396;10.008;2023-06-14T12:39:29;95853.53;;;25.11;21.60
8253;BME280;61313;48.396;10.008;2023-06-14T12:41:56;95859.25;;;24.76;22.32
8253;BME280;61313;48.396;10.008;2023-06-14T12:44:22;95854.28;;;23.97;23.63
8253;BME280;61313;48.396;10.008;2023-06-14T12:46:48;95862.84;;;24.09;23.77
8253;BME280;61313;48.396;10.008;2023-06-14T12:49:13;95856.91;;;24.56;23.73
8253;BME280;61313;48.396;10.008;2023-06-14T12:51:39;95859.28;;;24.84;23.49
8253;BME280;61313;48.396;10.008;2023-06-14T12:54:05;95853.91;;;24.59;23.08
8253;BME280;61313;48.396;10.008;2023-06-14T12:56:31;95856.25;;;24.62;22.99
8253;BME280;61313;48.396;10.008;2023-06-14T12:58:58;95854.41;;;24.46;23.51
8253;BME280;61313;48.396;10.008;2023-06-14T13:01:23;95864.41;;;24.28;23.19
8253;BME280;61313;48.396;10.008;2023-06-14T13:03:49;95862.13;;;24.58;23.15
8253;BME280;61313;48.396;10.008;2023-06-14T13:06:15;95853.56;;;24.87;22.62
8253;BME280;61313;48.396;10.008;2023-06-14T13:08:41;95863.94;;;24.98;22.59
8253;BME280;61313;48.396;10.008;2023-06-14T13:11:06;95859.13;;;24.85;22.04
8253;BME280;61313;48.396;10.008;2023-06-14T13:13:32;95862.13;;;24.90;22.70
8253;BME280;61313;48.396;10.008;2023-06-14T13:15:58;95853.84;;;25.08;22.91